createdAt,value
2019-06-07T00:00:31.489Z,10.39
2019-06-07T00:02:38.048Z,10.36
2019-06-07T00:05:05.123Z,10.42
2019-06-07T00:07:31.241Z,10.41
2019-06-07T00:09:57.032Z,10.25
2019-06-07T00:12:23.076Z,10.28
2019-06-07T00:14:48.954Z,10.34
2019-06-07T00:17:17.465Z,10.30
2019-06-07T00:19:42.792Z,10.36
2019-06-07T00:22:23.782Z,10.33
2019-06-07T00:24:36.400Z,10.42
2019-06-07T00:27:02.308Z,10.48
2019-06-07T00:29:31.194Z,10.48
2019-06-07T00:31:56.988Z,10.50
2019-06-07T00:34:24.819Z,10.59
2019-06-07T00:36:50.501Z,10.64
2019-06-07T00:39:21.946Z,10.70
2019-06-07T00:41:44.576Z,10.59
2019-06-07T00:44:10.412Z,10.61
2019-06-07T00:46:38.942Z,10.60
2019-06-07T00:49:04.780Z,10.62
2019-06-07T00:51:49.500Z,10.51
2019-06-07T00:54:01.156Z,10.44
2019-06-07T00:56:26.951Z,10.45
2019-06-07T00:59:10.106Z,10.38
2019-06-07T01:01:25.532Z,10.34
2019-06-07T01:03:51.642Z,10.33
2019-06-07T01:06:21.336Z,10.34
2019-06-07T01:08:45.370Z,10.30
2019-06-07T01:11:11.438Z,10.30
2019-06-07T01:13:37.238Z,10.31
2019-06-07T01:16:03.413Z,10.16
2019-06-07T01:18:41.052Z,10.19
2019-06-07T01:20:57.185Z,10.25
2019-06-07T01:24:03.283Z,10.04
2019-06-07T01:25:50.867Z,10.05
2019-06-07T01:28:22.413Z,9.98
2019-06-07T01:30:47.731Z,9.93
2019-06-07T01:33:13.499Z,9.88
2019-06-07T01:35:39.628Z,9.89
2019-06-07T01:38:08.457Z,9.89
2019-06-07T01:40:34.266Z,9.97
2019-06-07T01:43:02.852Z,10.00
2019-06-07T01:45:30.875Z,10.02
2019-06-07T01:47:56.631Z,10.02
2019-06-07T01:50:24.808Z,10.00
2019-06-07T01:52:50.177Z,10.00
2019-06-07T01:55:16.043Z,10.02
2019-06-07T01:57:48.098Z,10.08
2019-06-07T02:00:11.008Z,10.15
2019-06-07T02:02:36.965Z,10.14
2019-06-07T02:05:05.965Z,9.90
2019-06-07T02:07:33.199Z,9.89
2019-06-07T02:09:59.231Z,9.89
2019-06-07T02:12:34.247Z,9.88
2019-06-07T02:14:53.049Z,9.82
2019-06-07T02:17:20.247Z,9.84
2019-06-07T02:19:47.947Z,9.83
2019-06-07T02:22:13.728Z,9.89
2019-06-07T02:24:39.558Z,9.84
2019-06-07T02:27:05.395Z,9.87
2019-06-07T02:29:33.433Z,9.86
2019-06-07T02:31:59.207Z,9.84
2019-06-07T02:34:28.118Z,9.75
2019-06-07T02:36:55.517Z,9.81
2019-06-07T02:39:23.990Z,9.91
2019-06-07T02:41:49.041Z,9.83
2019-06-07T02:44:15.075Z,9.80
2019-06-07T02:46:49.161Z,9.79
2019-06-07T02:49:12.019Z,9.79
2019-06-07T02:51:41.376Z,9.73
2019-06-07T02:54:05.757Z,9.63
2019-06-07T02:56:46.615Z,9.71
2019-06-07T02:59:03.241Z,9.69
2019-06-07T03:01:35.782Z,9.73
2019-06-07T03:03:57.049Z,9.73
2019-06-07T03:06:23.061Z,9.71
2019-06-07T03:08:49.186Z,9.74
2019-06-07T03:11:15.207Z,9.76
2019-06-07T03:13:43.922Z,9.83
2019-06-07T03:16:11.624Z,9.81
2019-06-07T03:18:52.365Z,9.79
2019-06-07T03:21:23.041Z,9.79
2019-06-07T03:23:53.957Z,9.92
2019-06-07T03:26:20.076Z,10.00
2019-06-07T03:28:45.962Z,10.01
2019-06-07T03:31:11.799Z,9.96
2019-06-07T03:33:44.480Z,9.85
2019-06-07T03:36:22.679Z,9.85
2019-06-07T03:38:34.806Z,9.88
2019-06-07T03:41:01.169Z,9.92
2019-06-07T03:43:27.425Z,9.86
2019-06-07T03:45:53.311Z,9.80
2019-06-07T03:48:19.373Z,9.82
2019-06-07T03:50:45.166Z,9.85
2019-06-07T03:53:11.614Z,9.88
2019-06-07T03:55:39.077Z,9.85
2019-06-07T04:00:36.308Z,9.88
2019-06-07T04:03:00.908Z,9.78
2019-06-07T04:05:28.724Z,9.74
2019-06-07T04:07:54.563Z,9.70
2019-06-07T04:10:42.733Z,9.70
2019-06-07T04:12:48.068Z,9.69
2019-06-07T04:15:14.267Z,9.64
2019-06-07T04:18:00.507Z,9.67
2019-06-07T04:20:08.796Z,9.65
2019-06-07T04:22:39.244Z,9.61
2019-06-07T04:25:07.001Z,9.71
2019-06-07T04:27:33.629Z,9.68
2019-06-07T04:30:07.353Z,9.77
2019-06-07T04:32:30.230Z,9.64
2019-06-07T04:34:56.377Z,9.83
2019-06-07T04:37:24.139Z,9.85
2019-06-07T04:39:50.232Z,9.95
2019-06-07T04:42:17.889Z,9.99
2019-06-07T04:44:44.726Z,10.05
2019-06-07T04:47:10.979Z,10.09
2019-06-07T04:49:38.168Z,10.12
2019-06-07T04:52:04.870Z,10.15
2019-06-07T04:54:32.885Z,10.17
2019-06-07T04:56:58.657Z,10.26
2019-06-07T05:00:01.361Z,10.27
2019-06-07T05:01:52.453Z,10.27
2019-06-07T05:04:18.456Z,10.33
2019-06-07T05:06:44.253Z,10.28
2019-06-07T05:09:10.086Z,10.38
2019-06-07T05:11:38.535Z,10.44
2019-06-07T05:14:04.266Z,10.51
2019-06-07T05:16:30.498Z,10.57
2019-06-07T05:18:57.800Z,10.65
2019-06-07T05:21:23.875Z,10.71
2019-06-07T05:24:06.298Z,10.82
2019-06-07T05:26:17.735Z,10.93
2019-06-07T05:28:43.538Z,11.05
2019-06-07T05:31:09.429Z,11.03
2019-06-07T05:33:37.057Z,11.04
2019-06-07T05:36:02.983Z,11.12
2019-06-07T05:38:28.801Z,11.22
2019-06-07T05:40:54.887Z,11.29
2019-06-07T05:43:23.199Z,11.42
2019-06-07T05:45:49.079Z,11.45
2019-06-07T05:48:15.262Z,11.56
2019-06-07T05:50:54.847Z,11.55
2019-06-07T05:53:09.038Z,11.56
2019-06-07T05:55:35.286Z,11.69
2019-06-07T05:58:01.163Z,11.84
2019-06-07T06:00:27.348Z,11.95
2019-06-07T06:03:04.666Z,12.17
2019-06-07T06:05:33.251Z,12.29
2019-06-07T06:07:50.810Z,12.40
2019-06-07T06:10:16.663Z,12.59
2019-06-07T06:12:49.982Z,12.66
2019-06-07T06:15:10.196Z,12.71
2019-06-07T06:17:40.251Z,12.63
2019-06-07T06:20:05.653Z,12.63
2019-06-07T06:22:31.445Z,12.64
2019-06-07T06:28:03.210Z,13.01
2019-06-07T06:29:53.399Z,13.13
2019-06-07T06:34:49.656Z,13.67
2019-06-07T06:37:14.948Z,13.75
2019-06-07T06:39:42.148Z,13.73
2019-06-07T06:42:08.725Z,13.94
2019-06-07T06:44:34.561Z,14.21
2019-06-07T06:47:00.410Z,14.22
2019-06-07T06:49:26.469Z,14.48
2019-06-07T06:51:53.798Z,14.52
2019-06-07T06:54:39.331Z,14.54
2019-06-07T06:56:50.353Z,14.61
2019-06-07T06:59:37.950Z,14.50
2019-06-07T07:01:45.048Z,14.56
2019-06-07T07:04:13.414Z,14.67
2019-06-07T07:06:38.850Z,14.81
2019-06-07T07:09:05.058Z,14.78
2019-06-07T07:11:31.146Z,15.09
2019-06-07T07:13:57.432Z,15.06
2019-06-07T07:16:23.173Z,15.17
2019-06-07T07:18:51.744Z,15.18
2019-06-07T07:21:16.965Z,15.07
2019-06-07T07:24:08.138Z,15.14
2019-06-07T07:26:10.792Z,15.42
2019-06-07T07:28:36.638Z,15.51
2019-06-07T07:31:02.780Z,15.71
2019-06-07T07:34:19.783Z,15.80
2019-06-07T07:36:22.690Z,15.92
2019-06-07T07:38:24.275Z,16.03
2019-06-07T07:41:13.293Z,16.17
2019-06-07T07:43:18.035Z,16.06
2019-06-07T07:45:46.738Z,16.30
2019-06-07T07:48:17.738Z,16.38
2019-06-07T07:50:40.537Z,16.68
2019-06-07T07:53:06.807Z,16.63
2019-06-07T07:55:32.964Z,16.72
2019-06-07T07:58:01.736Z,16.98
2019-06-07T08:00:50.376Z,17.00
2019-06-07T08:02:58.654Z,17.26
2019-06-07T08:05:41.520Z,17.43
2019-06-07T08:07:55.389Z,17.38
2019-06-07T08:10:19.827Z,17.67
2019-06-07T08:13:07.642Z,17.80
2019-06-07T08:15:14.009Z,17.82
2019-06-07T08:17:39.832Z,17.78
2019-06-07T08:20:07.248Z,17.82
2019-06-07T08:22:33.375Z,17.96
2019-06-07T08:25:04.043Z,17.94
2019-06-07T08:27:27.084Z,18.57
2019-06-07T08:30:10.203Z,18.57
2019-06-07T08:32:21.028Z,18.93
2019-06-07T08:34:49.086Z,18.93
2019-06-07T08:37:14.694Z,19.42
2019-06-07T08:39:40.786Z,19.26
2019-06-07T08:42:17.780Z,19.53
2019-06-07T08:44:34.682Z,19.30
2019-06-07T08:47:18.421Z,19.53
2019-06-07T08:49:28.201Z,19.43
2019-06-07T08:51:57.696Z,19.45
2019-06-07T08:54:23.498Z,19.54
2019-06-07T08:56:52.743Z,19.54
2019-06-07T08:59:17.404Z,19.57
2019-06-07T09:01:43.513Z,19.54
2019-06-07T09:04:11.088Z,19.65
2019-06-07T09:09:06.981Z,19.33
2019-06-07T09:11:33.105Z,19.47
2019-06-07T09:14:02.160Z,19.54
2019-06-07T09:16:26.635Z,20.01
2019-06-07T09:18:57.017Z,20.51
2019-06-07T09:21:20.436Z,20.47
2019-06-07T09:23:46.265Z,20.42
2019-06-07T09:26:18.177Z,20.31
2019-06-07T09:28:40.794Z,20.44
2019-06-07T09:31:09.749Z,20.52
2019-06-07T09:33:34.578Z,20.93
2019-06-07T09:36:01.760Z,20.75
2019-06-07T09:38:28.426Z,20.69
2019-06-07T09:40:54.245Z,20.88
2019-06-07T09:45:48.341Z,21.20
2019-06-07T09:48:24.014Z,21.64
2019-06-07T09:50:42.171Z,21.62
2019-06-07T09:53:21.197Z,21.52
2019-06-07T09:55:36.059Z,21.75
2019-06-07T09:58:30.225Z,21.84
2019-06-07T10:00:41.382Z,21.75
2019-06-07T10:03:02.356Z,21.92
2019-06-07T10:05:25.207Z,22.15
2019-06-07T10:08:00.512Z,21.94
2019-06-07T10:12:46.583Z,21.84
2019-06-07T10:15:12.484Z,21.68
2019-06-07T10:17:38.494Z,22.06
2019-06-07T10:20:05.776Z,22.51
2019-06-07T10:22:31.600Z,22.29
2019-06-07T10:24:57.453Z,22.04
2019-06-07T10:27:23.277Z,22.20
2019-06-07T10:29:49.100Z,22.48
2019-06-07T10:32:14.889Z,22.52
2019-06-07T10:34:43.696Z,22.70
2019-06-07T10:37:11.977Z,23.06
2019-06-07T10:39:48.228Z,23.21
2019-06-07T10:42:06.489Z,23.32
2019-06-07T10:44:33.408Z,23.48
2019-06-07T10:46:59.343Z,23.53
2019-06-07T10:49:28.454Z,23.79
2019-06-07T10:51:54.250Z,23.78
2019-06-07T10:54:28.154Z,24.58
2019-06-07T10:56:50.817Z,25.49
2019-06-07T10:59:16.895Z,25.27
2019-06-07T11:01:42.708Z,24.76
2019-06-07T11:04:09.592Z,24.36
2019-06-07T11:06:35.519Z,24.39
2019-06-07T11:09:01.564Z,24.26
2019-06-07T11:11:28.854Z,24.56
2019-06-07T11:13:54.922Z,24.88
2019-06-07T11:16:23.756Z,25.24
2019-06-07T11:18:49.811Z,25.33
2019-06-07T11:21:19.051Z,25.62
2019-06-07T11:23:44.861Z,25.96
2019-06-07T11:26:14.540Z,26.18
2019-06-07T11:28:40.347Z,26.59
2019-06-07T11:31:08.396Z,26.98
2019-06-07T11:33:34.349Z,26.52
2019-06-07T11:36:00.450Z,26.71
2019-06-07T11:38:26.552Z,26.74
2019-06-07T11:40:52.377Z,26.70
2019-06-07T11:43:19.758Z,26.80
2019-06-07T11:45:45.596Z,26.86
2019-06-07T11:48:15.390Z,26.09
2019-06-07T11:50:41.387Z,26.70
2019-06-07T11:53:10.734Z,27.42
2019-06-07T11:55:36.600Z,26.51
2019-06-07T11:58:03.977Z,26.19
2019-06-07T12:00:30.943Z,26.28
2019-06-07T12:02:57.531Z,26.84
2019-06-07T12:05:23.316Z,27.28
2019-06-07T12:07:52.150Z,26.99
2019-06-07T12:10:22.484Z,26.90
2019-06-07T12:12:46.115Z,26.37
2019-06-07T12:15:12.922Z,26.52
2019-06-07T12:17:39.065Z,27.19
2019-06-07T12:20:08.459Z,27.49
2019-06-07T12:22:33.447Z,28.40
2019-06-07T12:24:59.747Z,29.03
2019-06-07T12:27:26.059Z,28.94
2019-06-07T12:29:55.183Z,26.97
2019-06-07T12:32:21.623Z,26.82
2019-06-07T12:34:49.045Z,27.49
2019-06-07T12:37:18.932Z,27.54
2019-06-07T12:39:42.842Z,27.61
2019-06-07T12:42:08.628Z,27.39
2019-06-07T12:44:37.811Z,26.75
2019-06-07T12:47:03.590Z,27.00
2019-06-07T12:49:29.412Z,27.43
2019-06-07T12:51:55.281Z,27.91
2019-06-07T12:54:21.739Z,28.06
2019-06-07T12:56:52.303Z,28.21
2019-06-07T12:59:17.940Z,28.13
2019-06-07T13:01:44.061Z,28.33
2019-06-07T13:04:09.882Z,28.70
2019-06-07T13:06:38.887Z,28.09
2019-06-07T13:09:05.077Z,27.72
2019-06-07T13:11:33.745Z,27.83
2019-06-07T13:13:59.565Z,28.29
2019-06-07T13:16:28.449Z,28.85
2019-06-07T13:18:54.645Z,29.71
2019-06-07T13:21:24.620Z,30.45
2019-06-07T13:23:50.601Z,30.70
2019-06-07T13:26:16.902Z,29.46
2019-06-07T13:28:43.424Z,29.42
2019-06-07T13:31:09.471Z,28.98
2019-06-07T13:33:38.690Z,29.22
2019-06-07T13:36:03.675Z,28.80
2019-06-07T13:38:29.555Z,28.81
2019-06-07T13:40:55.933Z,29.22
2019-06-07T13:43:25.738Z,29.85
2019-06-07T13:45:51.807Z,30.49
2019-06-07T13:48:21.169Z,30.73
2019-06-07T13:50:47.320Z,30.85
2019-06-07T13:53:13.159Z,31.02
2019-06-07T13:55:38.961Z,30.25
2019-06-07T13:58:07.804Z,30.06
2019-06-07T14:00:33.585Z,30.00
2019-06-07T14:02:59.405Z,29.89
2019-06-07T14:05:25.198Z,29.54
2019-06-07T14:07:51.313Z,29.78
2019-06-07T14:10:21.654Z,30.35
2019-06-07T14:12:47.833Z,29.65
2019-06-07T14:15:16.569Z,30.12
2019-06-07T14:17:42.347Z,30.99
2019-06-07T14:20:11.537Z,31.67
2019-06-07T14:22:38.452Z,31.41
2019-06-07T14:25:08.173Z,30.30
2019-06-07T14:27:34.010Z,30.41
2019-06-07T14:30:00.135Z,31.20
2019-06-07T14:32:26.609Z,31.44
2019-06-07T14:34:55.804Z,30.94
2019-06-07T14:37:22.791Z,31.40
2019-06-07T14:39:48.718Z,31.53
2019-06-07T14:42:14.523Z,31.09
2019-06-07T14:44:40.593Z,30.17
2019-06-07T14:47:06.610Z,29.22
2019-06-07T14:49:32.850Z,28.97
2019-06-07T14:52:01.960Z,28.85
2019-06-07T14:54:31.477Z,28.56
2019-06-07T14:56:55.551Z,28.42
2019-06-07T14:59:21.634Z,28.63
2019-06-07T15:01:50.338Z,28.48
2019-06-07T15:04:16.163Z,28.40
2019-06-07T15:06:45.010Z,28.76
2019-06-07T15:09:11.053Z,29.17
2019-06-07T15:11:39.946Z,29.20
2019-06-07T15:14:05.763Z,29.32
2019-06-07T15:16:32.043Z,29.38
2019-06-07T15:18:58.456Z,29.14
2019-06-07T15:21:24.264Z,29.07
2019-06-07T15:23:51.547Z,28.80
2019-06-07T15:26:17.588Z,28.42
2019-06-07T15:28:45.280Z,28.27
2019-06-07T15:31:11.375Z,28.08
2019-06-07T15:33:40.221Z,28.15
2019-06-07T15:36:06.038Z,28.46
2019-06-07T15:38:34.905Z,28.71
2019-06-07T15:41:00.766Z,28.59
2019-06-07T15:43:31.019Z,28.33
2019-06-07T15:45:56.963Z,28.13
2019-06-07T15:48:25.803Z,27.97
2019-06-07T15:50:51.909Z,27.73
2019-06-07T15:53:17.732Z,27.51
2019-06-07T15:55:45.774Z,27.04
2019-06-07T15:58:11.287Z,26.68
2019-06-07T16:00:37.464Z,26.22
2019-06-07T16:03:04.091Z,25.82
2019-06-07T16:05:31.908Z,25.43
2019-06-07T16:07:57.846Z,25.32
2019-06-07T16:10:26.396Z,25.33
2019-06-07T16:13:00.252Z,25.48
2019-06-07T16:15:20.086Z,25.72
2019-06-07T16:17:45.855Z,26.03
2019-06-07T16:20:15.383Z,25.95
2019-06-07T16:22:42.207Z,25.98
2019-06-07T16:25:11.705Z,25.79
2019-06-07T16:27:38.666Z,25.55
2019-06-07T16:30:09.333Z,25.00
2019-06-07T16:32:37.155Z,24.89
2019-06-07T16:35:05.195Z,24.85
2019-06-07T16:37:31.336Z,24.65
2019-06-07T16:39:57.145Z,24.40
2019-06-07T16:42:22.945Z,23.98
2019-06-07T16:44:48.987Z,23.66
2019-06-07T16:47:15.123Z,23.50
2019-06-07T16:49:40.985Z,23.31
2019-06-07T16:52:07.016Z,23.28
2019-06-07T16:54:35.563Z,23.18
2019-06-07T16:57:00.812Z,23.16
2019-06-07T16:59:26.609Z,23.25
2019-06-07T17:01:55.230Z,23.27
2019-06-07T17:04:21.036Z,23.07
2019-06-07T17:06:48.170Z,22.29
2019-06-07T17:09:14.420Z,21.65
2019-06-07T17:11:40.459Z,21.08
2019-06-07T17:14:06.244Z,20.56
2019-06-07T17:16:32.047Z,20.26
2019-06-07T17:19:02.905Z,19.98
2019-06-07T17:21:28.998Z,19.94
2019-06-07T17:23:57.823Z,19.49
2019-06-07T17:26:23.949Z,19.15
2019-06-07T17:28:50.604Z,18.80
2019-06-07T17:31:16.698Z,18.59
2019-06-07T17:33:46.005Z,18.22
2019-06-07T17:36:11.952Z,18.06
2019-06-07T17:38:40.761Z,18.06
2019-06-07T17:41:06.635Z,17.82
2019-06-07T17:43:48.210Z,17.73
2019-06-07T17:46:00.380Z,17.53
2019-06-07T17:48:26.182Z,17.43
2019-06-07T17:50:52.896Z,17.50
2019-06-07T17:53:18.791Z,17.51
2019-06-07T17:55:48.180Z,17.48
2019-06-07T17:58:14.080Z,17.33
2019-06-07T18:00:51.238Z,17.24
2019-06-07T18:03:17.479Z,16.92
2019-06-07T18:05:43.406Z,16.85
2019-06-07T18:08:09.205Z,16.79
2019-06-07T18:10:37.348Z,16.62
2019-06-07T18:13:03.568Z,16.61
2019-06-07T18:15:39.218Z,16.65
2019-06-07T18:18:05.620Z,16.60
2019-06-07T18:20:31.648Z,16.57
2019-06-07T18:22:57.454Z,16.46
2019-06-07T18:25:23.255Z,16.49
2019-06-07T18:27:49.090Z,16.56
2019-06-07T18:30:15.138Z,16.49
2019-06-07T18:32:40.969Z,16.35
2019-06-07T18:35:07.648Z,16.41
2019-06-07T18:37:33.467Z,16.50
2019-06-07T18:40:00.373Z,16.38
2019-06-07T18:42:26.309Z,16.42
2019-06-07T18:44:53.126Z,16.36
2019-06-07T18:47:18.948Z,16.12
2019-06-07T18:49:44.961Z,16.14
2019-06-07T18:52:15.678Z,15.90
2019-06-07T18:54:41.488Z,16.23
2019-06-07T18:57:07.279Z,16.08
2019-06-07T18:59:33.122Z,15.90
2019-06-07T19:01:59.183Z,15.83
2019-06-07T19:04:24.999Z,15.79
2019-06-07T19:06:50.821Z,15.79
2019-06-07T19:09:17.943Z,15.80
2019-06-07T19:11:44.012Z,15.79
2019-06-07T19:14:12.979Z,15.90
2019-06-07T19:16:38.796Z,15.78
2019-06-07T19:19:07.628Z,15.75
2019-06-07T19:21:33.544Z,15.67
2019-06-07T19:24:02.098Z,15.58
2019-06-07T19:26:27.926Z,15.54
2019-06-07T19:28:58.781Z,15.47
2019-06-07T19:31:24.662Z,15.53
2019-06-07T19:33:51.058Z,15.61
2019-06-07T19:36:16.936Z,15.59
2019-06-07T19:38:42.717Z,15.52
2019-06-07T19:41:19.412Z,15.53
2019-06-07T19:43:36.529Z,15.48
2019-06-07T19:46:02.522Z,15.38
2019-06-07T19:48:28.588Z,15.34
2019-06-07T19:50:57.142Z,15.30
2019-06-07T19:53:22.977Z,15.32
2019-06-07T19:55:55.002Z,15.46
2019-06-07T19:58:20.916Z,15.47
2019-06-07T20:00:47.262Z,15.47
2019-06-07T20:03:13.093Z,15.57
2019-06-07T20:05:41.727Z,15.58
2019-06-07T20:08:07.813Z,15.50
2019-06-07T20:10:33.639Z,15.46
2019-06-07T20:13:00.691Z,15.55
2019-06-07T20:15:29.536Z,15.62
2019-06-07T20:17:55.151Z,15.52
2019-06-07T20:20:23.880Z,15.25
2019-06-07T20:22:49.072Z,15.19
2019-06-07T20:25:14.818Z,15.22
2019-06-07T20:27:44.247Z,15.12
2019-06-07T20:30:11.535Z,15.07
2019-06-07T20:32:37.365Z,15.04
2019-06-07T20:35:04.069Z,14.96
2019-06-07T20:37:32.952Z,14.90
2019-06-07T20:40:02.506Z,14.80
2019-06-07T20:42:26.488Z,14.65
2019-06-07T20:44:52.302Z,14.55
2019-06-07T20:47:18.351Z,14.53
2019-06-07T20:49:44.402Z,14.59
2019-06-07T20:52:10.288Z,14.53
2019-06-07T20:54:39.100Z,14.46
2019-06-07T20:57:04.925Z,14.23
2019-06-07T20:59:33.776Z,14.24
2019-06-07T21:02:00.741Z,14.22
2019-06-07T21:04:29.461Z,14.19
2019-06-07T21:06:55.536Z,14.35
2019-06-07T21:09:24.655Z,14.23
2019-06-07T21:11:50.498Z,13.97
2019-06-07T21:14:19.418Z,13.84
2019-06-07T21:16:45.240Z,13.74
2019-06-07T21:19:13.821Z,13.76
2019-06-07T21:21:39.872Z,13.79
2019-06-07T21:24:06.789Z,13.80
2019-06-07T21:26:32.635Z,13.85
2019-06-07T21:28:58.469Z,13.86
2019-06-07T21:31:24.285Z,13.83
2019-06-07T21:33:50.341Z,13.68
2019-06-07T21:36:19.192Z,13.64
2019-06-07T21:38:45.236Z,13.60
2019-06-07T21:41:14.045Z,13.61
2019-06-07T21:43:40.111Z,13.63
2019-06-07T21:46:13.139Z,13.64
2019-06-07T21:48:37.187Z,13.65
2019-06-07T21:51:04.277Z,13.66
2019-06-07T21:53:30.077Z,13.64
2019-06-07T21:55:58.895Z,13.58
2019-06-07T21:58:24.704Z,13.64
2019-06-07T22:01:00.333Z,13.68
2019-06-07T22:03:26.254Z,13.80
2019-06-07T22:05:52.040Z,13.82
2019-06-07T22:08:17.826Z,13.86
2019-06-07T22:10:43.644Z,13.87
2019-06-07T22:13:10.118Z,13.78
2019-06-07T22:15:37.558Z,13.84
2019-06-07T22:18:04.445Z,13.68
2019-06-07T22:20:30.304Z,13.59
2019-06-07T22:22:56.112Z,13.49
2019-06-07T22:25:21.898Z,13.33
2019-06-07T22:27:47.730Z,13.36
2019-06-07T22:30:14.577Z,13.25
2019-06-07T22:32:44.438Z,13.26
2019-06-07T22:35:10.897Z,13.28
2019-06-07T22:37:36.818Z,13.23
2019-06-07T22:40:06.349Z,13.14
2019-06-07T22:42:32.203Z,13.06
2019-06-07T22:44:58.040Z,12.92
2019-06-07T22:47:24.147Z,12.83
2019-06-07T22:49:49.935Z,12.82
2019-06-07T22:52:17.323Z,12.85
2019-06-07T22:54:46.667Z,12.90
2019-06-07T22:57:14.407Z,12.90
2019-06-07T22:59:40.244Z,12.95
2019-06-07T23:02:06.288Z,13.00
2019-06-07T23:04:35.117Z,13.05
2019-06-07T23:07:01.073Z,13.22
2019-06-07T23:09:29.869Z,13.09
2019-06-07T23:11:55.982Z,13.05
2019-06-07T23:14:25.000Z,13.14
2019-06-07T23:16:55.586Z,13.19
2019-06-07T23:19:18.303Z,13.10
2019-06-07T23:21:44.458Z,13.15
2019-06-07T23:24:10.272Z,13.14
2019-06-07T23:26:36.344Z,13.22
2019-06-07T23:29:02.443Z,13.15
2019-06-07T23:31:31.339Z,13.14
2019-06-07T23:33:57.134Z,13.20
2019-06-07T23:36:26.527Z,13.08
2019-06-07T23:38:52.325Z,13.11
2019-06-07T23:41:20.289Z,13.21
2019-06-07T23:43:46.116Z,13.34
2019-06-07T23:46:15.302Z,13.50
2019-06-07T23:48:41.284Z,13.60
2019-06-07T23:51:07.082Z,13.36
2019-06-07T23:53:32.869Z,13.15
2019-06-07T23:55:58.831Z,13.10
2019-06-07T23:58:24.704Z,13.01
